createdAt,value
2023-02-28T07:34:42.186Z,102467.50
2023-02-28T07:37:08.850Z,102464.13
2023-02-28T07:39:35.533Z,102473.00
2023-02-28T07:42:06.076Z,102469.63
2023-02-28T07:44:32.878Z,102466.22
2023-02-28T07:46:59.542Z,102460.19
2023-02-28T07:49:26.230Z,102466.38
2023-02-28T07:51:52.894Z,102459.56
2023-02-28T07:54:19.523Z,102457.03
2023-02-28T07:56:46.194Z,102463.31
2023-02-28T07:59:13.181Z,102466.03
2023-02-28T08:01:39.873Z,102457.53
2023-02-28T08:04:06.519Z,102453.28
2023-02-28T08:06:33.182Z,102458.66
2023-02-28T08:08:59.841Z,102439.53
2023-02-28T08:11:26.556Z,102444.06
2023-02-28T08:13:53.640Z,102446.84
2023-02-28T08:16:23.357Z,102448.69
2023-02-28T08:18:52.221Z,102445.28
2023-02-28T08:21:20.336Z,102437.47
2023-02-28T08:23:51.429Z,102453.31
2023-02-28T08:26:19.482Z,102432.44
2023-02-28T08:28:47.254Z,102451.75
2023-02-28T08:31:16.277Z,102446.59
2023-02-28T08:33:45.586Z,102444.03
2023-02-28T08:36:13.074Z,102439.78
2023-02-28T08:38:39.870Z,102449.50
2023-02-28T08:41:10.006Z,102447.88
2023-02-28T08:43:37.628Z,102453.16
2023-02-28T08:46:05.136Z,102442.72
2023-02-28T08:48:34.535Z,102433.16
2023-02-28T08:51:08.854Z,102427.88
2023-02-28T08:53:39.527Z,102434.03
2023-02-28T08:56:08.425Z,102439.28
2023-02-28T08:58:36.426Z,102433.13
2023-02-28T09:01:09.682Z,102434.03
2023-02-28T09:03:36.519Z,102437.69
2023-02-28T09:06:03.842Z,102424.72
2023-02-28T09:08:31.558Z,102415.22
2023-02-28T09:11:00.181Z,102417.16
2023-02-28T09:13:27.918Z,102419.91
2023-02-28T09:15:55.794Z,102410.38
2023-02-28T09:18:22.660Z,102414.84
2023-02-28T09:20:49.333Z,102406.22
2023-02-28T09:23:15.998Z,102410.72
2023-02-28T09:25:51.361Z,102404.66
2023-02-28T09:28:18.611Z,102400.41
2023-02-28T09:30:47.948Z,102388.25
2023-02-28T09:33:15.391Z,102388.41
2023-02-28T09:35:43.927Z,102393.84
2023-02-28T09:38:11.496Z,102399.22
2023-02-28T09:40:47.261Z,102399.31
2023-02-28T09:43:16.378Z,102399.41
2023-02-28T09:45:49.648Z,102388.03
2023-02-28T09:48:22.412Z,102385.50
2023-02-28T09:51:05.111Z,102388.19
2023-02-28T09:53:35.231Z,102377.75
2023-02-28T09:56:08.474Z,102387.50
2023-02-28T09:58:41.744Z,102391.13
2023-02-28T10:01:43.168Z,102381.59
2023-02-28T10:04:34.575Z,102384.22
2023-02-28T10:07:20.352Z,102385.09
2023-02-28T10:09:52.732Z,102388.66
2023-02-28T10:12:21.262Z,102383.44
2023-02-28T10:14:50.262Z,102386.16
2023-02-28T10:17:32.581Z,102396.66
2023-02-28T10:20:12.674Z,102400.19
2023-02-28T10:22:54.381Z,102409.00
2023-02-28T10:25:24.448Z,102401.19
2023-02-28T10:27:55.177Z,102416.13
2023-02-28T10:30:21.858Z,102413.59
2023-02-28T10:32:54.700Z,102410.16
2023-02-28T10:35:22.878Z,102406.72
2023-02-28T10:37:52.560Z,102409.44
2023-02-28T10:40:19.164Z,102418.25
2023-02-28T10:43:15.076Z,102410.34
2023-02-28T10:45:54.117Z,102407.75
2023-02-28T10:48:20.724Z,102406.97
2023-02-28T10:50:53.244Z,102397.38
2023-02-28T10:53:26.015Z,102391.31
2023-02-28T10:56:18.478Z,102394.88
2023-02-28T10:59:03.493Z,102395.75
2023-02-28T11:01:33.416Z,102407.22
2023-02-28T11:04:00.678Z,102401.13
2023-02-28T11:06:33.378Z,102404.66
2023-02-28T11:09:15.238Z,102412.63
2023-02-28T11:11:48.152Z,102410.91
2023-02-28T11:14:26.929Z,102400.41
2023-02-28T11:16:54.913Z,102401.38
2023-02-28T11:19:31.604Z,102395.28
2023-02-28T11:22:01.301Z,102393.53
2023-02-28T11:24:44.943Z,102397.94
2023-02-28T11:27:46.135Z,102390.03
2023-02-28T11:30:29.995Z,102391.84
2023-02-28T11:32:57.030Z,102394.50
2023-02-28T11:35:35.794Z,102392.78
2023-02-28T11:38:03.808Z,102385.81
2023-02-28T11:41:03.547Z,102377.06
2023-02-28T11:43:51.343Z,102385.94
2023-02-28T11:46:25.683Z,102383.31
2023-02-28T11:49:04.407Z,102378.06
2023-02-28T11:51:34.358Z,102372.78
2023-02-28T11:54:22.177Z,102367.53
2023-02-28T11:56:55.924Z,102352.59
2023-02-28T11:59:42.683Z,102357.88
2023-02-28T12:02:21.602Z,102354.38
2023-02-28T12:05:07.857Z,102350.00
2023-02-28T12:07:52.473Z,102350.03
2023-02-28T12:10:23.869Z,102357.97
2023-02-28T12:13:10.536Z,102357.09
2023-02-28T12:16:17.817Z,102350.94
2023-02-28T12:19:02.719Z,102347.41
2023-02-28T12:21:38.324Z,102354.47
2023-02-28T12:24:05.003Z,102358.88
2023-02-28T12:26:41.116Z,102351.00
2023-02-28T12:29:18.353Z,102356.28
2023-02-28T12:31:57.674Z,102338.72
2023-02-28T12:34:32.692Z,102335.19
2023-02-28T12:37:05.773Z,102335.22
2023-02-28T12:39:49.842Z,102334.31
2023-02-28T12:42:26.462Z,102341.38
2023-02-28T12:45:11.318Z,102341.41
2023-02-28T12:47:41.541Z,102340.50
2023-02-28T12:50:12.585Z,102344.03
2023-02-28T12:53:01.819Z,102336.13
2023-02-28T12:55:35.081Z,102344.91
2023-02-28T12:58:12.346Z,102347.53
2023-02-28T13:00:50.162Z,102340.50
2023-02-28T13:03:43.547Z,102341.41
2023-02-28T13:06:39.758Z,102345.78
2023-02-28T13:09:15.801Z,102355.47
2023-02-28T13:11:52.816Z,102351.09
2023-02-28T13:14:31.462Z,102346.69
2023-02-28T13:17:00.429Z,102340.53
2023-02-28T13:19:30.208Z,102337.03
2023-02-28T13:21:59.873Z,102344.94
2023-02-28T13:24:35.433Z,102347.56
2023-02-28T13:27:02.126Z,102357.25
2023-02-28T13:29:34.619Z,102342.31
2023-02-28T13:32:07.281Z,102342.31
2023-02-28T13:34:36.046Z,102332.59
2023-02-28T13:37:24.204Z,102337.00
2023-02-28T13:40:27.421Z,102338.78
2023-02-28T13:42:54.159Z,102342.31
2023-02-28T13:45:31.358Z,102343.19
2023-02-28T13:48:05.340Z,102341.44
2023-02-28T13:50:36.135Z,102349.31
2023-02-28T13:53:14.787Z,102349.31
2023-02-28T13:55:55.038Z,102346.69
2023-02-28T13:58:40.485Z,102339.63
2023-02-28T14:01:22.388Z,102347.59
2023-02-28T14:03:54.938Z,102342.31
2023-02-28T14:06:21.510Z,102343.19
2023-02-28T14:09:25.010Z,102352.84
2023-02-28T14:11:52.392Z,102347.56
2023-02-28T14:14:37.178Z,102343.16
2023-02-28T14:17:10.651Z,102351.09
2023-02-28T14:19:39.491Z,102351.94
2023-02-28T14:22:47.886Z,102353.72
2023-02-28T14:25:29.108Z,102348.44
2023-02-28T14:28:16.633Z,102342.25
2023-02-28T14:31:09.503Z,102342.28
2023-02-28T14:34:00.872Z,102345.81
2023-02-28T14:36:32.967Z,102340.50
2023-02-28T14:39:05.702Z,102336.97
2023-02-28T14:41:39.699Z,102334.38
2023-02-28T14:44:18.665Z,102336.13
2023-02-28T14:46:47.216Z,102330.84
2023-02-28T14:49:19.307Z,102325.56
2023-02-28T14:51:48.312Z,102322.03
2023-02-28T14:54:17.723Z,102316.75
2023-02-28T14:56:44.441Z,102321.16
2023-02-28T14:59:40.613Z,102317.63
2023-02-28T15:02:24.343Z,102315.00
2023-02-28T15:04:59.874Z,102302.66
2023-02-28T15:07:30.764Z,102311.47
2023-02-28T15:10:20.971Z,102316.72
2023-02-28T15:13:07.237Z,102315.84
2023-02-28T15:16:06.084Z,102324.66
2023-02-28T15:18:47.988Z,102319.34
2023-02-28T15:21:19.490Z,102322.00
2023-02-28T15:23:50.942Z,102314.97
2023-02-28T15:26:22.682Z,102314.06
2023-02-28T15:28:55.008Z,102299.97
2023-02-28T15:31:34.055Z,102303.47
2023-02-28T15:34:06.377Z,102310.50
2023-02-28T15:36:38.257Z,102308.72
2023-02-28T15:39:21.320Z,102314.88
2023-02-28T15:41:47.996Z,102320.16
2023-02-28T15:44:26.935Z,102316.63
2023-02-28T15:47:03.835Z,102310.44
2023-02-28T15:49:45.011Z,102300.75
2023-02-28T15:52:17.022Z,102305.16
2023-02-28T15:54:45.258Z,102302.50
2023-02-28T15:57:26.562Z,102295.47
2023-02-28T16:00:01.475Z,102291.91
2023-02-28T16:02:38.886Z,102280.47
2023-02-28T16:05:11.493Z,102274.31
2023-02-28T16:07:44.117Z,102273.38
2023-02-28T16:10:15.168Z,102277.78
2023-02-28T16:12:43.034Z,102267.22
2023-02-28T16:15:19.938Z,102271.63
2023-02-28T16:17:47.704Z,102277.72
2023-02-28T16:20:28.670Z,102275.09
2023-02-28T16:22:55.617Z,102282.09
2023-02-28T16:25:29.525Z,102278.59
2023-02-28T16:27:58.588Z,102283.81
2023-02-28T16:30:29.023Z,102283.78
2023-02-28T16:32:56.777Z,102291.63
2023-02-28T16:35:24.418Z,102293.34
2023-02-28T16:37:54.839Z,102293.31
2023-02-28T16:40:26.356Z,102298.53
2023-02-28T16:42:56.826Z,102303.81
2023-02-28T16:45:26.139Z,102300.28
2023-02-28T16:47:53.837Z,102296.75
2023-02-28T16:50:22.377Z,102295.84
2023-02-28T16:52:50.545Z,102294.06
2023-02-28T16:55:17.382Z,102298.44
2023-02-28T16:57:44.872Z,102293.16
2023-02-28T17:00:14.635Z,102311.56
2023-02-28T17:02:42.950Z,102309.78
2023-02-28T17:05:12.339Z,102304.50
2023-02-28T17:07:39.904Z,102306.22
2023-02-28T17:10:19.734Z,102311.50
2023-02-28T17:12:46.483Z,102320.28
2023-02-28T17:15:15.955Z,102321.13
2023-02-28T17:17:43.851Z,102314.97
2023-02-28T17:20:27.522Z,102308.84
2023-02-28T17:22:55.690Z,102314.06
2023-02-28T17:25:23.703Z,102307.94
2023-02-28T17:27:52.449Z,102303.50
2023-02-28T17:30:25.748Z,102304.38
2023-02-28T17:32:52.500Z,102307.84
2023-02-28T17:35:19.239Z,102310.41
2023-02-28T17:37:46.355Z,102318.28
2023-02-28T17:40:20.879Z,102300.72
2023-02-28T17:42:47.818Z,102302.44
2023-02-28T17:45:15.863Z,102301.53
2023-02-28T17:47:44.921Z,102293.66
2023-02-28T17:50:17.242Z,102287.50
2023-02-28T17:52:43.943Z,102300.66
2023-02-28T17:55:11.934Z,102291.00
2023-02-28T17:57:38.889Z,102299.78
2023-02-28T18:00:09.238Z,102297.16
2023-02-28T18:02:35.974Z,102289.25
2023-02-28T18:05:05.329Z,102286.59
2023-02-28T18:07:32.174Z,102292.69
2023-02-28T18:09:58.822Z,102287.44
2023-02-28T18:12:25.494Z,102284.81
2023-02-28T18:14:52.150Z,102287.44
2023-02-28T18:17:18.781Z,102289.16
2023-02-28T18:19:45.448Z,102292.66
2023-02-28T18:22:12.189Z,102294.38
2023-02-28T18:24:38.841Z,102294.38
2023-02-28T18:27:06.667Z,102290.81
2023-02-28T18:29:33.730Z,102286.34
2023-02-28T18:32:02.415Z,102287.25
2023-02-28T18:34:30.724Z,102295.13
2023-02-28T18:36:57.785Z,102289.84
2023-02-28T18:39:24.604Z,102281.94
2023-02-28T18:41:52.119Z,102286.28
2023-02-28T18:44:20.688Z,102302.03
2023-02-28T18:46:51.678Z,102293.22
2023-02-28T18:49:18.662Z,102299.38
2023-02-28T18:51:46.679Z,102299.31
2023-02-28T18:54:15.037Z,102299.31
2023-02-28T18:56:42.493Z,102289.59
2023-02-28T18:59:09.289Z,102298.41
2023-02-28T19:01:36.491Z,102302.75
2023-02-28T19:04:04.700Z,102295.75
2023-02-28T19:06:32.431Z,102304.50
2023-02-28T19:09:02.364Z,102297.53
2023-02-28T19:11:29.281Z,102309.81
2023-02-28T19:13:56.529Z,102306.28
2023-02-28T19:16:23.445Z,102301.00
2023-02-28T19:18:50.558Z,102300.97
2023-02-28T19:21:19.516Z,102289.50
2023-02-28T19:23:46.219Z,102301.72
2023-02-28T19:26:19.066Z,102302.59
2023-02-28T19:28:46.240Z,102299.03
2023-02-28T19:31:19.451Z,102298.16
2023-02-28T19:33:46.208Z,102305.19
2023-02-28T19:36:13.956Z,102306.97
2023-02-28T19:38:40.922Z,102309.59
2023-02-28T19:41:10.187Z,102311.38
2023-02-28T19:43:37.145Z,102319.31
2023-02-28T19:46:04.144Z,102325.50
2023-02-28T19:48:30.931Z,102331.69
2023-02-28T19:51:02.646Z,102323.78
2023-02-28T19:53:31.362Z,102332.59
2023-02-28T19:56:00.540Z,102330.84
2023-02-28T19:58:28.104Z,102328.16
2023-02-28T20:00:54.891Z,102343.94
2023-02-28T20:03:21.884Z,102354.41
2023-02-28T20:06:02.525Z,102351.75
2023-02-28T20:08:29.849Z,102359.59
2023-02-28T20:11:02.496Z,102349.91
2023-02-28T20:13:29.226Z,102354.28
2023-02-28T20:15:59.423Z,102356.00
2023-02-28T20:18:26.074Z,102363.88
2023-02-28T20:20:52.842Z,102360.34
2023-02-28T20:23:19.474Z,102364.66
2023-02-28T20:25:46.112Z,102369.84
2023-02-28T20:28:12.745Z,102381.16
2023-02-28T20:30:41.922Z,102372.41
2023-02-28T20:33:08.679Z,102373.28
2023-02-28T20:35:35.475Z,102374.13
2023-02-28T20:38:02.182Z,102375.91
2023-02-28T20:40:28.830Z,102373.25
2023-02-28T20:42:55.510Z,102379.38
2023-02-28T20:45:22.148Z,102378.41
2023-02-28T20:47:48.825Z,102369.63
2023-02-28T20:50:17.175Z,102373.97
2023-02-28T20:52:44.606Z,102384.47
2023-02-28T20:55:15.216Z,102382.66
2023-02-28T20:57:41.853Z,102386.19
2023-02-28T21:00:15.773Z,102392.34
2023-02-28T21:02:42.569Z,102393.28
2023-02-28T21:05:09.806Z,102394.16
2023-02-28T21:07:36.691Z,102394.16
2023-02-28T21:10:03.753Z,102402.00
2023-02-28T21:12:30.467Z,102403.72
2023-02-28T21:14:57.124Z,102409.81
2023-02-28T21:17:23.861Z,102409.75
2023-02-28T21:19:50.515Z,102408.88
2023-02-28T21:22:17.200Z,102414.97
2023-02-28T21:24:44.077Z,102414.97
2023-02-28T21:27:10.708Z,102412.28
2023-02-28T21:29:37.395Z,102424.50
2023-02-28T21:32:04.177Z,102427.09
2023-02-28T21:34:30.863Z,102419.19
2023-02-28T21:36:57.555Z,102422.69
2023-02-28T21:39:29.581Z,102423.50
2023-02-28T21:42:03.558Z,102431.34
2023-02-28T21:44:31.582Z,102440.91
2023-02-28T21:47:01.061Z,102449.59
2023-02-28T21:49:28.549Z,102437.31
2023-02-28T21:51:55.226Z,102449.59
2023-02-28T21:54:21.884Z,102450.41
2023-02-28T21:56:50.743Z,102456.53
2023-02-28T21:59:18.132Z,102459.13
2023-02-28T22:01:45.487Z,102459.97
2023-02-28T22:04:21.415Z,102459.97
2023-02-28T22:06:53.863Z,102461.72
2023-02-28T22:09:21.536Z,102460.78
2023-02-28T22:11:48.273Z,102469.53
2023-02-28T22:14:15.318Z,102474.78
2023-02-28T22:16:57.536Z,102475.66
2023-02-28T22:19:24.560Z,102473.91
2023-02-28T22:21:53.825Z,102474.78
2023-02-28T22:24:24.307Z,102485.34
2023-02-28T22:26:51.972Z,102485.34
2023-02-28T22:29:18.971Z,102487.13
2023-02-28T22:31:45.855Z,102489.78
2023-02-28T22:34:13.078Z,102488.91
2023-02-28T22:36:43.492Z,102486.34
2023-02-28T22:39:10.915Z,102486.38
2023-02-28T22:41:38.363Z,102482.91
2023-02-28T22:44:05.996Z,102494.28
2023-02-28T22:46:34.922Z,102490.78
2023-02-28T22:49:03.739Z,102488.09
2023-02-28T22:51:31.165Z,102488.97
2023-02-28T22:53:58.517Z,102490.63
2023-02-28T22:56:29.106Z,102496.75
2023-02-28T22:58:58.152Z,102492.28
2023-02-28T23:01:27.293Z,102493.13
2023-02-28T23:03:54.482Z,102489.56
2023-02-28T23:06:24.610Z,102491.25
2023-02-28T23:08:53.448Z,102494.69
2023-02-28T23:11:24.834Z,102500.72
2023-02-28T23:14:01.218Z,102500.66
2023-02-28T23:16:49.048Z,102500.66
2023-02-28T23:19:19.905Z,102505.84
2023-02-28T23:21:47.127Z,102507.47
2023-02-28T23:24:16.665Z,102511.75
2023-02-28T23:26:46.550Z,102514.25
2023-02-28T23:29:15.540Z,102515.06
2023-02-28T23:31:42.461Z,102521.03
2023-02-28T23:34:09.840Z,102520.03
2023-02-28T23:36:38.305Z,102516.53
2023-02-28T23:39:06.246Z,102520.03
2023-02-28T23:41:32.957Z,102516.47
2023-02-28T23:43:59.598Z,102513.81
2023-02-28T23:46:27.159Z,102514.69
2023-02-28T23:48:53.800Z,102523.44
2023-02-28T23:51:21.990Z,102524.31
2023-02-28T23:53:51.050Z,102533.00
2023-02-28T23:56:20.805Z,102533.72
2023-02-28T23:58:48.061Z,102537.91
